Terminal Aerodrome Forecast
Issued by NWS Los Angeles, CA

Home | Current Version | Previous Version | Text Only | Print | Product List | Glossary On
Versions: 1 2 3 4 5 6 7 8 9 10 11 12 13 14 15 16 17 18 19
000
FTUS46 KLOX 181700
TAFSMX
TAF
KSMX 181737Z 1818/1918 09004KT P6SM VCSH OVC024
     FM181900 VRB03KT P6SM BKN050
     FM182100 29006KT P6SM BKN050
     FM190200 VRB03KT P6SM SCT035 BKN050
     FM191000 VRB03KT 4SM BR OVC005
     FM191600 VRB03KT 5SM BR BKN005 OVC010 PROB30 1916/1918 -RA=

USA.gov is the U.S. government's official web portal to all federal, state and local government web resources and services.